createdAt,value
2018-10-04T00:00:39.921Z,9.35
2018-10-04T00:03:09.291Z,10.00
2018-10-04T00:05:38.690Z,10.93
2018-10-04T00:08:08.091Z,13.00
2018-10-04T00:10:37.667Z,12.40
2018-10-04T00:13:07.263Z,13.43
2018-10-04T00:15:36.667Z,12.85
2018-10-04T00:18:06.070Z,11.88
2018-10-04T00:20:35.435Z,9.35
2018-10-04T00:23:04.931Z,12.65
2018-10-04T00:25:34.310Z,16.85
2018-10-04T00:28:03.878Z,10.05
2018-10-04T00:30:33.265Z,9.58
2018-10-04T00:33:02.658Z,11.35
2018-10-04T00:35:32.112Z,12.60
2018-10-04T00:38:01.528Z,12.78
2018-10-04T00:40:31.001Z,10.58
2018-10-04T00:43:00.451Z,11.12
2018-10-04T00:45:29.939Z,11.18
2018-10-04T00:47:59.486Z,12.50
2018-10-04T00:50:28.914Z,11.18
2018-10-04T00:52:58.397Z,12.40
2018-10-04T00:55:27.831Z,11.53
2018-10-04T00:57:57.249Z,10.05
2018-10-04T01:00:26.609Z,16.65
2018-10-04T01:02:56.004Z,10.15
2018-10-04T01:05:25.444Z,10.58
2018-10-04T01:07:54.871Z,11.55
2018-10-04T01:10:24.258Z,13.10
2018-10-04T01:12:53.655Z,11.55
2018-10-04T01:15:23.200Z,11.83
2018-10-04T01:18:09.553Z,11.55
2018-10-04T01:20:38.928Z,16.75
2018-10-04T01:23:08.647Z,10.50
2018-10-04T01:25:38.156Z,15.03
2018-10-04T01:28:07.505Z,10.10
2018-10-04T01:30:37.040Z,9.88
2018-10-04T01:33:06.599Z,12.55
2018-10-04T01:35:36.020Z,13.08
2018-10-04T01:38:05.434Z,10.68
2018-10-04T01:40:34.931Z,10.10
2018-10-04T01:43:04.403Z,11.57
2018-10-04T01:45:33.786Z,10.38
2018-10-04T01:48:03.223Z,11.22
2018-10-04T01:50:32.650Z,11.18
2018-10-04T01:53:01.994Z,13.60
2018-10-04T01:55:31.383Z,13.25
2018-10-04T01:58:00.788Z,11.43
2018-10-04T02:00:30.179Z,12.00
2018-10-04T02:02:59.589Z,15.83
2018-10-04T02:05:28.967Z,12.33
2018-10-04T02:07:58.420Z,14.15
2018-10-04T02:10:27.813Z,11.88
2018-10-04T02:12:57.464Z,14.87
2018-10-04T02:15:26.812Z,11.78
2018-10-04T02:17:56.195Z,10.72
2018-10-04T02:20:25.551Z,13.85
2018-10-04T02:22:54.945Z,10.72
2018-10-04T02:25:24.297Z,11.03
2018-10-04T02:27:53.664Z,13.45
2018-10-04T02:33:33.135Z,11.28
2018-10-04T02:36:02.537Z,12.60
2018-10-04T02:38:31.905Z,9.33
2018-10-04T02:41:01.307Z,13.98
2018-10-04T02:43:30.700Z,13.03
2018-10-04T02:46:00.150Z,11.48
2018-10-04T02:48:29.796Z,12.43
2018-10-04T02:50:59.339Z,12.78
2018-10-04T02:53:28.880Z,12.20
2018-10-04T02:56:03.295Z,12.03
2018-10-04T02:58:36.360Z,13.00
2018-10-04T03:01:06.601Z,13.62
2018-10-04T03:03:36.833Z,10.75
2018-10-04T03:06:07.055Z,11.95
2018-10-04T03:08:37.383Z,10.18
2018-10-04T03:11:07.828Z,11.20
2018-10-04T03:13:37.988Z,12.13
2018-10-04T03:16:11.303Z,12.95
2018-10-04T03:18:43.653Z,12.25
2018-10-04T03:21:15.331Z,13.78
2018-10-04T03:23:46.675Z,17.35
2018-10-04T03:26:18.106Z,17.85
2018-10-04T03:28:49.211Z,17.17
2018-10-04T03:31:20.570Z,20.05
2018-10-04T03:33:52.339Z,16.07
2018-10-04T03:36:23.636Z,17.30
2018-10-04T03:38:54.983Z,14.80
2018-10-04T03:41:27.605Z,15.75
2018-10-04T03:43:59.129Z,17.15
2018-10-04T03:46:31.470Z,15.23
2018-10-04T03:49:04.881Z,19.82
2018-10-04T03:51:36.586Z,16.75
2018-10-04T03:54:08.331Z,15.35
2018-10-04T03:56:38.941Z,14.28
2018-10-04T03:59:09.403Z,14.28
2018-10-04T04:01:39.751Z,15.80
2018-10-04T04:04:10.195Z,16.02
2018-10-04T04:06:40.651Z,14.18
2018-10-04T04:09:13.116Z,17.80
2018-10-04T04:11:43.361Z,18.35
2018-10-04T04:14:13.912Z,17.92
2018-10-04T04:16:44.427Z,17.82
2018-10-04T04:19:14.570Z,18.35
2018-10-04T04:21:44.966Z,13.03
2018-10-04T04:24:15.379Z,20.25
2018-10-04T04:26:44.928Z,19.07
2018-10-04T04:29:14.469Z,19.50
2018-10-04T04:31:44.082Z,17.82
2018-10-04T04:34:13.444Z,17.35
2018-10-04T04:36:42.911Z,17.27
2018-10-04T04:39:12.262Z,15.40
2018-10-04T04:41:41.692Z,17.35
2018-10-04T04:44:11.164Z,15.48
2018-10-04T04:46:40.780Z,17.02
2018-10-04T04:49:10.059Z,15.25
2018-10-04T04:51:39.447Z,20.45
2018-10-04T04:54:09.509Z,38.85
2018-10-04T04:56:38.923Z,36.03
2018-10-04T04:59:08.420Z,47.75
2018-10-04T05:01:37.837Z,31.20
2018-10-04T05:04:07.154Z,23.15
2018-10-04T05:06:36.613Z,16.60
2018-10-04T05:09:06.022Z,35.17
2018-10-04T05:11:35.521Z,23.65
2018-10-04T05:14:04.897Z,21.68
2018-10-04T05:16:34.373Z,28.27
2018-10-04T05:19:03.946Z,18.32
2018-10-04T05:21:33.348Z,22.67
2018-10-04T05:24:02.811Z,26.05
2018-10-04T05:26:32.245Z,25.80
2018-10-04T05:29:01.643Z,25.45
2018-10-04T05:31:31.057Z,26.23
2018-10-04T05:34:00.425Z,22.32
2018-10-04T05:36:29.819Z,21.87
2018-10-04T05:38:59.265Z,20.52
2018-10-04T05:41:28.845Z,19.23
2018-10-04T05:43:58.272Z,19.15
2018-10-04T05:46:27.619Z,23.95
2018-10-04T05:48:57.006Z,20.50
2018-10-04T05:51:26.463Z,25.45
2018-10-04T05:53:55.855Z,25.23
2018-10-04T05:56:25.243Z,25.90
2018-10-04T05:58:54.665Z,24.30
2018-10-04T06:01:24.063Z,20.97
2018-10-04T06:03:53.454Z,23.60
2018-10-04T06:06:22.853Z,20.05
2018-10-04T06:08:52.269Z,24.77
2018-10-04T06:11:21.701Z,15.93
2018-10-04T06:13:51.062Z,19.55
2018-10-04T06:16:20.461Z,17.92
2018-10-04T06:18:49.840Z,19.35
2018-10-04T06:21:19.362Z,19.62
2018-10-04T06:23:48.820Z,23.83
2018-10-04T06:26:18.474Z,24.92
2018-10-04T06:28:48.054Z,18.80
2018-10-04T06:31:17.361Z,22.90
2018-10-04T06:33:46.748Z,27.73
2018-10-04T06:36:16.153Z,26.97
2018-10-04T06:38:45.547Z,28.32
2018-10-04T06:41:14.948Z,28.60
2018-10-04T06:43:44.322Z,31.10
2018-10-04T06:46:13.687Z,31.90
2018-10-04T06:48:43.119Z,34.13
2018-10-04T06:51:12.553Z,26.62
2018-10-04T06:53:42.013Z,30.50
2018-10-04T06:56:11.428Z,34.48
2018-10-04T06:58:40.855Z,30.32
2018-10-04T07:01:10.206Z,37.05
2018-10-04T07:03:39.642Z,41.95
2018-10-04T07:06:09.037Z,35.35
2018-10-04T07:08:38.387Z,37.40
2018-10-04T07:11:07.876Z,33.28
2018-10-04T07:13:37.327Z,34.95
2018-10-04T07:16:06.799Z,30.15
2018-10-04T07:18:36.167Z,33.00
2018-10-04T07:21:05.664Z,29.30
2018-10-04T07:23:35.081Z,31.80
2018-10-04T07:26:04.591Z,38.80
2018-10-04T07:28:34.040Z,35.92
2018-10-04T07:31:03.533Z,32.33
2018-10-04T07:33:33.084Z,24.25
2018-10-04T07:36:02.565Z,31.17
2018-10-04T07:38:32.023Z,24.75
2018-10-04T07:41:01.467Z,27.05
2018-10-04T07:43:30.873Z,25.82
2018-10-04T07:46:00.335Z,28.73
2018-10-04T07:48:29.742Z,25.48
2018-10-04T07:50:59.113Z,31.62
2018-10-04T07:53:28.452Z,28.05
2018-10-04T07:55:57.891Z,29.30
2018-10-04T07:58:27.326Z,25.82
2018-10-04T08:00:56.753Z,26.77
2018-10-04T08:03:26.159Z,28.57
2018-10-04T08:05:55.792Z,29.63
2018-10-04T08:08:25.027Z,31.97
2018-10-04T08:10:54.340Z,27.55
2018-10-04T08:13:23.764Z,26.40
2018-10-04T08:15:53.124Z,30.72
2018-10-04T08:18:22.572Z,28.45
2018-10-04T08:20:52.026Z,28.73
2018-10-04T08:23:21.348Z,28.12
2018-10-04T08:25:50.723Z,28.47
2018-10-04T08:28:20.135Z,30.50
2018-10-04T08:30:49.650Z,25.68
2018-10-04T08:33:19.042Z,27.00
2018-10-04T08:35:48.584Z,28.47
2018-10-04T08:38:18.017Z,28.50
2018-10-04T08:40:47.463Z,30.77
2018-10-04T08:43:16.903Z,28.27
2018-10-04T08:45:47.157Z,32.38
2018-10-04T08:48:16.555Z,28.92
2018-10-04T08:50:50.051Z,30.20
2018-10-04T08:53:19.513Z,31.93
2018-10-04T08:55:48.949Z,31.85
2018-10-04T08:58:18.437Z,28.55
2018-10-04T09:00:47.857Z,27.07
2018-10-04T09:03:19.766Z,31.55
2018-10-04T09:05:49.531Z,32.23
2018-10-04T09:08:18.927Z,34.13
2018-10-04T09:10:48.410Z,33.95
2018-10-04T09:13:17.841Z,35.98
2018-10-04T09:15:47.231Z,36.08
2018-10-04T09:18:16.691Z,39.45
2018-10-04T09:20:46.119Z,32.48
2018-10-04T09:23:15.546Z,32.65
2018-10-04T09:25:44.960Z,30.02
2018-10-04T09:28:16.550Z,28.17
2018-10-04T09:30:51.232Z,28.30
2018-10-04T09:33:21.026Z,27.45
2018-10-04T09:35:50.477Z,40.25
2018-10-04T09:38:21.120Z,32.23
2018-10-04T09:40:50.931Z,30.27
2018-10-04T09:43:20.448Z,22.77
2018-10-04T09:45:49.833Z,26.35
2018-10-04T09:48:19.241Z,23.57
2018-10-04T09:50:48.665Z,29.40
2018-10-04T09:53:18.098Z,27.98
2018-10-04T09:55:52.495Z,20.02
2018-10-04T09:58:21.922Z,23.07
2018-10-04T10:00:56.584Z,18.20
2018-10-04T10:03:25.967Z,20.72
2018-10-04T10:05:55.442Z,18.15
2018-10-04T10:08:24.845Z,27.60
2018-10-04T10:10:54.334Z,17.50
2018-10-04T10:13:23.774Z,24.07
2018-10-04T10:15:53.196Z,21.05
2018-10-04T10:18:22.563Z,15.50
2018-10-04T10:20:51.965Z,17.15
2018-10-04T10:23:21.297Z,13.13
2018-10-04T10:25:50.683Z,19.10
2018-10-04T10:28:20.062Z,21.20
2018-10-04T10:30:49.491Z,15.85
2018-10-04T10:33:18.895Z,17.00
2018-10-04T10:35:48.441Z,22.22
2018-10-04T10:38:17.955Z,17.55
2018-10-04T10:40:47.404Z,14.65
2018-10-04T10:43:16.800Z,15.68
2018-10-04T10:45:46.155Z,16.20
2018-10-04T10:48:15.540Z,14.78
2018-10-04T10:50:44.924Z,22.70
2018-10-04T10:53:15.149Z,19.35
2018-10-04T10:55:44.550Z,18.92
2018-10-04T10:58:14.199Z,24.12
2018-10-04T11:00:43.723Z,22.75
2018-10-04T11:03:13.320Z,13.38
2018-10-04T11:05:42.681Z,14.15
2018-10-04T11:08:12.057Z,11.22
2018-10-04T11:10:41.473Z,14.25
2018-10-04T11:13:10.907Z,19.82
2018-10-04T11:15:40.309Z,13.62
2018-10-04T11:18:09.671Z,10.93
2018-10-04T11:20:39.072Z,18.82
2018-10-04T11:23:08.517Z,14.95
2018-10-04T11:25:37.875Z,14.70
2018-10-04T11:28:07.346Z,12.25
2018-10-04T11:30:36.895Z,16.07
2018-10-04T11:33:06.438Z,15.70
2018-10-04T11:35:35.896Z,18.37
2018-10-04T11:38:05.337Z,12.05
2018-10-04T11:40:34.700Z,20.55
2018-10-04T11:43:04.221Z,21.00
2018-10-04T11:45:36.666Z,14.35
2018-10-04T11:48:06.351Z,12.78
2018-10-04T11:50:35.838Z,15.05
2018-10-04T11:53:05.200Z,13.30
2018-10-04T11:55:34.695Z,13.88
2018-10-04T11:58:04.222Z,11.08
2018-10-04T12:00:33.597Z,13.03
2018-10-04T12:03:02.967Z,13.90
2018-10-04T12:05:32.404Z,14.30
2018-10-04T12:08:01.788Z,15.15
2018-10-04T12:10:31.168Z,11.90
2018-10-04T12:13:01.107Z,14.45
2018-10-04T12:15:30.451Z,13.83
2018-10-04T12:17:59.840Z,15.93
2018-10-04T12:20:29.222Z,13.10
2018-10-04T12:22:58.576Z,14.78
2018-10-04T12:25:27.997Z,13.80
2018-10-04T12:27:57.407Z,9.48
2018-10-04T12:30:26.767Z,11.57
2018-10-04T12:32:56.120Z,11.68
2018-10-04T12:35:25.460Z,13.22
2018-10-04T12:37:54.883Z,11.97
2018-10-04T12:40:24.222Z,14.75
2018-10-04T12:42:53.752Z,13.35
2018-10-04T12:45:23.145Z,14.28
2018-10-04T12:47:52.553Z,9.08
2018-10-04T12:50:21.902Z,10.25
2018-10-04T12:52:51.357Z,8.85
2018-10-04T12:55:20.865Z,12.65
2018-10-04T12:57:50.214Z,11.78
2018-10-04T13:00:21.399Z,13.93
2018-10-04T13:02:51.148Z,13.50
2018-10-04T13:05:20.531Z,17.95
2018-10-04T13:07:49.931Z,9.98
2018-10-04T13:10:19.354Z,10.88
2018-10-04T13:12:48.774Z,11.75
2018-10-04T13:15:18.200Z,19.25
2018-10-04T13:17:47.597Z,12.58
2018-10-04T13:20:16.969Z,11.85
2018-10-04T13:22:46.337Z,9.15
2018-10-04T13:25:15.872Z,10.13
2018-10-04T13:27:45.383Z,14.35
2018-10-04T13:30:14.786Z,9.35
2018-10-04T13:32:45.734Z,9.58
2018-10-04T13:35:15.211Z,15.13
2018-10-04T13:37:44.582Z,9.75
2018-10-04T13:40:14.025Z,10.00
2018-10-04T13:42:43.454Z,41.28
2018-10-04T13:45:13.140Z,7.08
2018-10-04T13:47:42.546Z,9.53
2018-10-04T13:50:12.100Z,12.50
2018-10-04T13:52:41.585Z,14.10
2018-10-04T13:55:11.207Z,8.78
2018-10-04T13:57:40.631Z,5.28
2018-10-04T14:00:10.143Z,7.30
2018-10-04T14:02:39.696Z,11.60
2018-10-04T14:05:09.131Z,11.93
2018-10-04T14:07:38.622Z,10.18
2018-10-04T14:10:08.270Z,10.30
2018-10-04T14:12:37.749Z,11.50
2018-10-04T14:15:07.529Z,8.68
2018-10-04T14:17:37.486Z,14.58
2018-10-04T14:20:07.033Z,25.15
2018-10-04T14:22:36.474Z,14.95
2018-10-04T14:25:06.620Z,11.40
2018-10-04T14:27:36.135Z,18.05
2018-10-04T14:30:05.656Z,13.45
2018-10-04T14:32:35.171Z,8.15
2018-10-04T14:35:04.726Z,16.37
2018-10-04T14:37:34.431Z,13.20
2018-10-04T14:40:04.069Z,11.50
2018-10-04T14:42:33.651Z,9.65
2018-10-04T14:45:03.193Z,14.35
2018-10-04T14:47:32.781Z,13.22
2018-10-04T14:50:02.261Z,8.28
2018-10-04T14:52:31.837Z,11.03
2018-10-04T14:55:01.738Z,10.28
2018-10-04T14:57:31.279Z,10.38
2018-10-04T15:00:00.760Z,13.08
2018-10-04T15:02:30.175Z,16.20
2018-10-04T15:04:59.657Z,8.08
2018-10-04T15:07:29.051Z,8.15
2018-10-04T15:09:58.606Z,8.03
2018-10-04T15:12:28.075Z,10.75
2018-10-04T15:14:57.541Z,9.03
2018-10-04T15:17:26.946Z,11.03
2018-10-04T15:19:56.316Z,10.23
2018-10-04T15:22:25.828Z,7.72
2018-10-04T15:24:55.302Z,10.35
2018-10-04T15:27:24.813Z,12.98
2018-10-04T15:29:54.317Z,8.15
2018-10-04T15:32:23.732Z,19.23
2018-10-04T15:34:53.131Z,7.58
2018-10-04T15:37:23.571Z,5.45
2018-10-04T15:39:53.032Z,6.17
2018-10-04T15:42:22.457Z,4.00
2018-10-04T15:44:51.897Z,9.03
2018-10-04T15:47:21.414Z,9.05
2018-10-04T15:49:50.995Z,8.85
2018-10-04T15:52:20.549Z,11.88
2018-10-04T15:54:50.189Z,10.08
2018-10-04T15:57:19.595Z,9.35
2018-10-04T15:59:49.041Z,13.72
2018-10-04T16:02:18.451Z,7.17
2018-10-04T16:04:48.264Z,6.03
2018-10-04T16:07:19.599Z,6.45
2018-10-04T16:09:49.928Z,10.70
2018-10-04T16:12:20.683Z,14.00
2018-10-04T16:14:52.102Z,10.68
2018-10-04T16:17:23.347Z,17.82
2018-10-04T16:19:54.951Z,28.80
2018-10-04T16:22:24.311Z,29.87
2018-10-04T16:24:53.731Z,27.77
2018-10-04T16:27:28.352Z,26.87
2018-10-04T16:29:59.099Z,23.85
2018-10-04T16:32:28.533Z,13.85
2018-10-04T16:34:57.930Z,7.00
2018-10-04T16:37:27.481Z,8.78
2018-10-04T16:39:56.921Z,11.35
2018-10-04T16:42:26.410Z,13.70
2018-10-04T16:44:55.789Z,8.88
2018-10-04T16:47:25.175Z,15.10
2018-10-04T16:49:54.560Z,12.80
2018-10-04T16:52:23.999Z,14.68
2018-10-04T16:54:53.609Z,13.72
2018-10-04T16:57:23.034Z,9.20
2018-10-04T16:59:52.462Z,10.72
2018-10-04T17:02:21.912Z,19.40
2018-10-04T17:04:51.338Z,14.87
2018-10-04T17:07:21.026Z,10.30
2018-10-04T17:09:50.627Z,16.70
2018-10-04T17:12:20.283Z,15.72
2018-10-04T17:14:49.738Z,12.23
2018-10-04T17:17:19.181Z,10.72
2018-10-04T17:19:48.614Z,14.53
2018-10-04T17:22:18.084Z,13.32
2018-10-04T17:24:47.406Z,11.38
2018-10-04T17:27:16.860Z,11.12
2018-10-04T17:29:46.276Z,12.33
2018-10-04T17:32:18.528Z,18.52
2018-10-04T17:34:47.905Z,14.38
2018-10-04T17:37:17.362Z,15.23
2018-10-04T17:39:46.764Z,18.12
2018-10-04T17:42:16.162Z,16.57
2018-10-04T17:44:45.545Z,11.18
2018-10-04T17:47:15.001Z,13.25
2018-10-04T17:49:44.530Z,17.50
2018-10-04T17:52:13.987Z,12.05
2018-10-04T17:54:43.391Z,15.38
2018-10-04T17:57:12.889Z,12.28
2018-10-04T17:59:42.407Z,22.77
2018-10-04T18:02:11.912Z,20.82
2018-10-04T18:04:41.399Z,14.03
2018-10-04T18:07:10.856Z,8.40
2018-10-04T18:09:40.299Z,18.77
2018-10-04T18:12:10.692Z,11.88
2018-10-04T18:14:40.111Z,16.80
2018-10-04T18:17:09.628Z,27.45
2018-10-04T18:19:39.137Z,27.17
2018-10-04T18:22:15.013Z,16.50
2018-10-04T18:24:44.371Z,17.02
2018-10-04T18:27:13.803Z,13.43
2018-10-04T18:29:43.211Z,14.47
2018-10-04T18:32:12.574Z,25.85
2018-10-04T18:34:42.111Z,16.80
2018-10-04T18:37:11.579Z,28.60
2018-10-04T18:39:41.083Z,18.00
2018-10-04T18:42:10.438Z,17.73
2018-10-04T18:44:39.861Z,18.82
2018-10-04T18:47:09.451Z,18.60
2018-10-04T18:49:41.439Z,19.52
2018-10-04T18:52:11.225Z,20.75
2018-10-04T18:54:40.600Z,20.90
2018-10-04T18:57:10.033Z,23.62
2018-10-04T18:59:39.719Z,20.15
2018-10-04T19:02:09.109Z,14.80
2018-10-04T19:04:38.513Z,20.95
2018-10-04T19:07:07.956Z,17.98
2018-10-04T19:09:37.369Z,23.67
2018-10-04T19:12:06.799Z,17.52
2018-10-04T19:14:36.222Z,14.28
2018-10-04T19:17:05.636Z,20.02
2018-10-04T19:19:35.082Z,25.80
2018-10-04T19:22:04.538Z,19.05
2018-10-04T19:24:33.906Z,17.10
2018-10-04T19:27:03.291Z,16.30
2018-10-04T19:29:32.765Z,21.97
2018-10-04T19:32:02.210Z,25.08
2018-10-04T19:34:31.603Z,18.90
2018-10-04T19:37:01.038Z,20.82
2018-10-04T19:39:30.425Z,27.10
2018-10-04T19:41:59.816Z,27.02
2018-10-04T19:44:29.283Z,27.05
2018-10-04T19:46:58.735Z,24.80
2018-10-04T19:49:28.043Z,20.62
2018-10-04T19:51:57.502Z,19.77
2018-10-04T19:54:26.971Z,20.12
2018-10-04T19:56:56.441Z,23.85
2018-10-04T19:59:25.875Z,13.18
2018-10-04T20:01:55.236Z,14.98
2018-10-04T20:04:24.739Z,14.87
2018-10-04T20:06:54.246Z,23.32
2018-10-04T20:09:24.287Z,21.25
2018-10-04T20:11:53.809Z,20.95
2018-10-04T20:14:23.281Z,21.87
2018-10-04T20:16:52.671Z,18.25
2018-10-04T20:19:22.086Z,18.25
2018-10-04T20:21:51.498Z,16.27
2018-10-04T20:24:20.906Z,13.18
2018-10-04T20:26:50.364Z,18.65
2018-10-04T20:29:20.225Z,14.05
2018-10-04T20:31:49.599Z,13.90
2018-10-04T20:34:19.041Z,14.18
2018-10-04T20:36:48.406Z,15.03
2018-10-04T20:39:17.805Z,18.98
2018-10-04T20:41:47.191Z,13.40
2018-10-04T20:44:16.636Z,22.07
2018-10-04T20:46:45.978Z,16.27
2018-10-04T20:49:15.391Z,18.05
2018-10-04T20:51:44.792Z,17.35
2018-10-04T20:54:14.222Z,15.93
2018-10-04T20:56:43.669Z,19.37
2018-10-04T20:59:13.148Z,12.15
2018-10-04T21:01:42.491Z,17.50
2018-10-04T21:04:12.117Z,11.97
2018-10-04T21:06:41.684Z,16.35
2018-10-04T21:09:12.133Z,16.15
2018-10-04T21:11:41.937Z,27.35
2018-10-04T21:14:12.231Z,21.70
2018-10-04T21:16:41.659Z,19.65
2018-10-04T21:19:11.121Z,23.27
2018-10-04T21:21:40.550Z,19.05
2018-10-04T21:24:10.023Z,21.15
2018-10-04T21:26:39.411Z,27.15
2018-10-04T21:29:08.846Z,17.07
2018-10-04T21:31:38.337Z,17.73
2018-10-04T21:34:07.735Z,20.90
2018-10-04T21:36:37.169Z,15.95
2018-10-04T21:39:07.256Z,18.77
2018-10-04T21:41:37.073Z,25.08
2018-10-04T21:44:06.571Z,28.12
2018-10-04T21:46:35.952Z,21.57
2018-10-04T21:49:05.386Z,18.57
2018-10-04T21:51:34.823Z,23.98
2018-10-04T21:54:04.276Z,15.03
2018-10-04T21:56:33.721Z,18.92
2018-10-04T21:59:03.181Z,23.15
2018-10-04T22:01:32.658Z,13.45
2018-10-04T22:04:02.164Z,19.60
2018-10-04T22:06:31.579Z,16.25
2018-10-04T22:09:00.964Z,17.52
2018-10-04T22:11:30.426Z,12.33
2018-10-04T22:13:59.940Z,17.23
2018-10-04T22:16:29.527Z,16.95
2018-10-04T22:18:58.948Z,13.60
2018-10-04T22:21:28.301Z,17.00
2018-10-04T22:23:57.680Z,17.62
2018-10-04T22:26:27.069Z,13.60
2018-10-04T22:28:56.447Z,14.78
2018-10-04T22:31:25.856Z,20.17
2018-10-04T22:33:55.295Z,19.73
2018-10-04T22:36:24.725Z,16.30
2018-10-04T22:38:54.138Z,16.95
2018-10-04T22:41:23.531Z,14.20
2018-10-04T22:43:52.964Z,24.27
2018-10-04T22:46:22.372Z,19.25
2018-10-04T22:48:51.799Z,16.23
2018-10-04T22:51:21.196Z,19.23
2018-10-04T22:53:50.573Z,16.32
2018-10-04T22:56:20.012Z,16.93
2018-10-04T22:58:49.503Z,13.00
2018-10-04T23:01:18.883Z,14.90
2018-10-04T23:03:48.283Z,21.77
2018-10-04T23:06:17.694Z,17.42
2018-10-04T23:08:47.267Z,16.62
2018-10-04T23:11:16.788Z,24.32
2018-10-04T23:13:46.136Z,17.17
2018-10-04T23:16:15.622Z,14.40
2018-10-04T23:18:45.137Z,14.58
2018-10-04T23:21:14.523Z,11.70
2018-10-04T23:23:43.931Z,14.43
2018-10-04T23:26:13.270Z,10.68
2018-10-04T23:28:42.646Z,10.08
2018-10-04T23:31:12.047Z,15.20
2018-10-04T23:33:41.432Z,15.03
2018-10-04T23:36:10.877Z,15.00
2018-10-04T23:38:40.297Z,11.10
2018-10-04T23:41:09.778Z,10.72
2018-10-04T23:43:39.272Z,16.35
2018-10-04T23:46:08.651Z,20.92
2018-10-04T23:48:38.115Z,14.03
2018-10-04T23:51:08.378Z,16.52
2018-10-04T23:53:37.819Z,15.10
2018-10-04T23:56:07.235Z,18.25
2018-10-04T23:58:36.635Z,17.50
